sensor_id;sensor_type;location;lat;lon;timestamp;temperature;humidity
39655;DHT22;25336;59.944;11.010;2024-02-26T00:01:36;5.20;73.50
39655;DHT22;25336;59.944;11.010;2024-02-26T00:04:02;6.00;74.00
39655;DHT22;25336;59.944;11.010;2024-02-26T00:06:29;6.00;74.80
39655;DHT22;25336;59.944;11.010;2024-02-26T00:08:55;6.00;74.10
39655;DHT22;25336;59.944;11.010;2024-02-26T00:11:21;6.00;74.20
39655;DHT22;25336;59.944;11.010;2024-02-26T00:13:47;6.00;74.30
39655;DHT22;25336;59.944;11.010;2024-02-26T00:16:12;6.00;74.30
39655;DHT22;25336;59.944;11.010;2024-02-26T00:18:38;6.00;74.40
39655;DHT22;25336;59.944;11.010;2024-02-26T00:21:04;6.00;74.50
39655;DHT22;25336;59.944;11.010;2024-02-26T00:23:30;6.00;74.50
39655;DHT22;25336;59.944;11.010;2024-02-26T00:25:56;6.00;74.50
39655;DHT22;25336;59.944;11.010;2024-02-26T00:28:21;6.00;74.50
39655;DHT22;25336;59.944;11.010;2024-02-26T00:30:47;6.00;74.50
39655;DHT22;25336;59.944;11.010;2024-02-26T00:33:16;6.00;74.50
39655;DHT22;25336;59.944;11.010;2024-02-26T00:35:42;6.00;74.60
39655;DHT22;25336;59.944;11.010;2024-02-26T00:38:08;5.90;74.50
39655;DHT22;25336;59.944;11.010;2024-02-26T00:40:33;6.00;74.60
39655;DHT22;25336;59.944;11.010;2024-02-26T00:43:00;6.00;74.70
39655;DHT22;25336;59.944;11.010;2024-02-26T00:45:25;6.00;74.70
39655;DHT22;25336;59.944;11.010;2024-02-26T00:47:51;5.90;74.60
39655;DHT22;25336;59.944;11.010;2024-02-26T00:50:17;5.90;74.60
39655;DHT22;25336;59.944;11.010;2024-02-26T00:52:43;6.10;74.80
39655;DHT22;25336;59.944;11.010;2024-02-26T00:55:09;5.90;74.70
39655;DHT22;25336;59.944;11.010;2024-02-26T00:57:34;5.90;74.90
39655;DHT22;25336;59.944;11.010;2024-02-26T01:00:00;5.80;74.80
39655;DHT22;25336;59.944;11.010;2024-02-26T01:02:26;5.80;74.90
39655;DHT22;25336;59.944;11.010;2024-02-26T01:04:52;5.80;74.90
39655;DHT22;25336;59.944;11.010;2024-02-26T01:07:18;5.80;75.00
39655;DHT22;25336;59.944;11.010;2024-02-26T01:09:44;5.70;75.00
39655;DHT22;25336;59.944;11.010;2024-02-26T01:12:10;5.70;75.20
39655;DHT22;25336;59.944;11.010;2024-02-26T01:14:36;5.70;75.20
39655;DHT22;25336;59.944;11.010;2024-02-26T01:17:01;5.70;75.20
39655;DHT22;25336;59.944;11.010;2024-02-26T01:19:28;5.70;75.20
39655;DHT22;25336;59.944;11.010;2024-02-26T01:21:54;5.70;75.60
39655;DHT22;25336;59.944;11.010;2024-02-26T01:24:19;5.10;74.90
39655;DHT22;25336;59.944;11.010;2024-02-26T01:26:45;5.60;75.20
39655;DHT22;25336;59.944;11.010;2024-02-26T01:29:10;5.60;75.30
39655;DHT22;25336;59.944;11.010;2024-02-26T01:31:36;5.70;75.40
39655;DHT22;25336;59.944;11.010;2024-02-26T01:34:02;5.60;75.40
39655;DHT22;25336;59.944;11.010;2024-02-26T01:36:28;5.60;75.50
39655;DHT22;25336;59.944;11.010;2024-02-26T01:38:53;5.60;75.70
39655;DHT22;25336;59.944;11.010;2024-02-26T01:41:19;5.60;75.80
39655;DHT22;25336;59.944;11.010;2024-02-26T01:43:45;5.60;75.80
39655;DHT22;25336;59.944;11.010;2024-02-26T01:46:13;5.60;75.80
39655;DHT22;25336;59.944;11.010;2024-02-26T01:48:44;5.60;75.80
39655;DHT22;25336;59.944;11.010;2024-02-26T01:51:12;5.60;75.80
39655;DHT22;25336;59.944;11.010;2024-02-26T01:53:40;5.60;75.80
39655;DHT22;25336;59.944;11.010;2024-02-26T01:56:07;5.60;75.80
39655;DHT22;25336;59.944;11.010;2024-02-26T01:58:34;5.60;75.80
39655;DHT22;25336;59.944;11.010;2024-02-26T02:01:01;5.50;75.70
39655;DHT22;25336;59.944;11.010;2024-02-26T02:03:28;5.60;75.90
39655;DHT22;25336;59.944;11.010;2024-02-26T02:05:54;5.60;75.90
39655;DHT22;25336;59.944;11.010;2024-02-26T02:08:20;5.50;75.90
39655;DHT22;25336;59.944;11.010;2024-02-26T02:10:47;5.50;75.90
39655;DHT22;25336;59.944;11.010;2024-02-26T02:13:14;5.50;76.00
39655;DHT22;25336;59.944;11.010;2024-02-26T02:15:40;5.50;76.00
39655;DHT22;25336;59.944;11.010;2024-02-26T02:18:06;5.50;76.10
39655;DHT22;25336;59.944;11.010;2024-02-26T02:20:33;5.50;76.10
39655;DHT22;25336;59.944;11.010;2024-02-26T02:22:59;5.50;77.00
39655;DHT22;25336;59.944;11.010;2024-02-26T02:25:25;5.50;76.20
39655;DHT22;25336;59.944;11.010;2024-02-26T02:27:52;5.50;76.20
39655;DHT22;25336;59.944;11.010;2024-02-26T02:30:20;5.50;76.30
39655;DHT22;25336;59.944;11.010;2024-02-26T02:32:46;5.40;76.20
39655;DHT22;25336;59.944;11.010;2024-02-26T02:35:12;5.50;76.20
39655;DHT22;25336;59.944;11.010;2024-02-26T02:37:38;5.40;76.10
39655;DHT22;25336;59.944;11.010;2024-02-26T02:40:04;5.40;76.20
39655;DHT22;25336;59.944;11.010;2024-02-26T02:42:30;5.40;76.30
39655;DHT22;25336;59.944;11.010;2024-02-26T02:44:56;5.40;76.30
39655;DHT22;25336;59.944;11.010;2024-02-26T02:47:22;5.40;76.40
39655;DHT22;25336;59.944;11.010;2024-02-26T02:49:48;5.40;76.50
39655;DHT22;25336;59.944;11.010;2024-02-26T02:52:14;5.40;76.60
39655;DHT22;25336;59.944;11.010;2024-02-26T02:54:39;5.40;76.70
39655;DHT22;25336;59.944;11.010;2024-02-26T02:57:10;5.40;76.70
39655;DHT22;25336;59.944;11.010;2024-02-26T02:59:36;5.40;76.80
39655;DHT22;25336;59.944;11.010;2024-02-26T03:02:05;5.40;76.80
39655;DHT22;25336;59.944;11.010;2024-02-26T03:04:32;5.40;76.80
39655;DHT22;25336;59.944;11.010;2024-02-26T03:06:57;5.40;76.80
39655;DHT22;25336;59.944;11.010;2024-02-26T03:09:23;5.40;76.70
39655;DHT22;25336;59.944;11.010;2024-02-26T03:11:49;5.40;77.40
39655;DHT22;25336;59.944;11.010;2024-02-26T03:14:15;5.30;76.60
39655;DHT22;25336;59.944;11.010;2024-02-26T03:16:41;5.30;76.50
39655;DHT22;25336;59.944;11.010;2024-02-26T03:19:07;5.30;76.70
39655;DHT22;25336;59.944;11.010;2024-02-26T03:21:32;5.30;76.70
39655;DHT22;25336;59.944;11.010;2024-02-26T03:24:02;5.30;76.80
39655;DHT22;25336;59.944;11.010;2024-02-26T03:26:28;5.30;76.90
39655;DHT22;25336;59.944;11.010;2024-02-26T03:28:54;5.30;76.90
39655;DHT22;25336;59.944;11.010;2024-02-26T03:31:19;5.30;76.90
39655;DHT22;25336;59.944;11.010;2024-02-26T03:33:47;5.30;76.90
39655;DHT22;25336;59.944;11.010;2024-02-26T03:36:12;5.30;76.90
39655;DHT22;25336;59.944;11.010;2024-02-26T03:38:38;5.30;76.90
39655;DHT22;25336;59.944;11.010;2024-02-26T03:41:04;5.30;76.90
39655;DHT22;25336;59.944;11.010;2024-02-26T03:43:30;5.30;77.00
39655;DHT22;25336;59.944;11.010;2024-02-26T03:45:55;5.30;77.00
39655;DHT22;25336;59.944;11.010;2024-02-26T03:48:21;5.30;77.00
39655;DHT22;25336;59.944;11.010;2024-02-26T03:50:47;5.30;77.00
39655;DHT22;25336;59.944;11.010;2024-02-26T03:53:12;5.30;77.00
39655;DHT22;25336;59.944;11.010;2024-02-26T03:55:38;5.30;77.00
39655;DHT22;25336;59.944;11.010;2024-02-26T03:58:04;5.30;77.00
39655;DHT22;25336;59.944;11.010;2024-02-26T04:00:29;5.30;77.00
39655;DHT22;25336;59.944;11.010;2024-02-26T04:02:55;5.30;76.90
39655;DHT22;25336;59.944;11.010;2024-02-26T04:05:21;5.30;76.90
39655;DHT22;25336;59.944;11.010;2024-02-26T04:07:47;5.30;77.00
39655;DHT22;25336;59.944;11.010;2024-02-26T04:10:13;5.40;77.10
39655;DHT22;25336;59.944;11.010;2024-02-26T04:12:40;5.30;77.00
39655;DHT22;25336;59.944;11.010;2024-02-26T04:15:07;5.40;77.10
39655;DHT22;25336;59.944;11.010;2024-02-26T04:17:33;5.40;77.00
39655;DHT22;25336;59.944;11.010;2024-02-26T04:19:59;5.40;77.00
39655;DHT22;25336;59.944;11.010;2024-02-26T04:22:24;5.40;76.90
39655;DHT22;25336;59.944;11.010;2024-02-26T04:24:50;5.40;76.90
39655;DHT22;25336;59.944;11.010;2024-02-26T04:27:16;5.40;76.80
39655;DHT22;25336;59.944;11.010;2024-02-26T04:29:41;5.40;76.70
39655;DHT22;25336;59.944;11.010;2024-02-26T04:32:07;5.40;76.70
39655;DHT22;25336;59.944;11.010;2024-02-26T04:34:33;5.40;76.70
39655;DHT22;25336;59.944;11.010;2024-02-26T04:36:58;5.30;76.60
39655;DHT22;25336;59.944;11.010;2024-02-26T04:39:24;5.30;76.50
39655;DHT22;25336;59.944;11.010;2024-02-26T04:41:52;5.30;76.50
39655;DHT22;25336;59.944;11.010;2024-02-26T04:44:18;5.30;76.50
39655;DHT22;25336;59.944;11.010;2024-02-26T04:46:44;5.30;76.60
39655;DHT22;25336;59.944;11.010;2024-02-26T04:49:09;5.30;76.60
39655;DHT22;25336;59.944;11.010;2024-02-26T04:51:35;5.30;76.50
39655;DHT22;25336;59.944;11.010;2024-02-26T04:54:03;5.20;76.50
39655;DHT22;25336;59.944;11.010;2024-02-26T04:56:30;5.20;76.50
39655;DHT22;25336;59.944;11.010;2024-02-26T04:58:56;5.20;76.50
39655;DHT22;25336;59.944;11.010;2024-02-26T05:01:21;5.20;76.60
39655;DHT22;25336;59.944;11.010;2024-02-26T05:03:47;5.20;76.60
39655;DHT22;25336;59.944;11.010;2024-02-26T05:06:14;5.20;76.60
39655;DHT22;25336;59.944;11.010;2024-02-26T05:08:40;5.20;76.60
39655;DHT22;25336;59.944;11.010;2024-02-26T05:11:06;5.10;76.60
39655;DHT22;25336;59.944;11.010;2024-02-26T05:13:32;5.20;76.70
39655;DHT22;25336;59.944;11.010;2024-02-26T05:15:57;5.10;76.70
39655;DHT22;25336;59.944;11.010;2024-02-26T05:18:23;5.10;76.70
39655;DHT22;25336;59.944;11.010;2024-02-26T05:20:49;5.10;76.70
39655;DHT22;25336;59.944;11.010;2024-02-26T05:23:15;4.20;76.20
39655;DHT22;25336;59.944;11.010;2024-02-26T05:25:40;5.10;76.90
39655;DHT22;25336;59.944;11.010;2024-02-26T05:28:07;5.10;76.80
39655;DHT22;25336;59.944;11.010;2024-02-26T05:30:33;4.30;76.30
39655;DHT22;25336;59.944;11.010;2024-02-26T05:32:58;5.10;76.80
39655;DHT22;25336;59.944;11.010;2024-02-26T05:35:25;5.10;76.80
39655;DHT22;25336;59.944;11.010;2024-02-26T05:37:53;5.10;76.70
39655;DHT22;25336;59.944;11.010;2024-02-26T05:40:19;5.10;76.50
39655;DHT22;25336;59.944;11.010;2024-02-26T05:42:45;5.10;76.40
39655;DHT22;25336;59.944;11.010;2024-02-26T05:45:11;5.00;76.40
39655;DHT22;25336;59.944;11.010;2024-02-26T05:47:36;5.00;76.30
39655;DHT22;25336;59.944;11.010;2024-02-26T05:50:11;5.70;76.80
39655;DHT22;25336;59.944;11.010;2024-02-26T05:52:37;5.00;76.40
39655;DHT22;25336;59.944;11.010;2024-02-26T05:55:07;5.00;76.40
39655;DHT22;25336;59.944;11.010;2024-02-26T05:57:36;5.00;76.50
39655;DHT22;25336;59.944;11.010;2024-02-26T06:00:02;5.00;76.50
39655;DHT22;25336;59.944;11.010;2024-02-26T06:02:30;5.00;76.50
39655;DHT22;25336;59.944;11.010;2024-02-26T06:04:57;5.00;76.40
39655;DHT22;25336;59.944;11.010;2024-02-26T06:07:23;5.00;76.40
39655;DHT22;25336;59.944;11.010;2024-02-26T06:09:49;5.00;76.40
39655;DHT22;25336;59.944;11.010;2024-02-26T06:12:15;5.00;76.50
39655;DHT22;25336;59.944;11.010;2024-02-26T06:14:44;5.00;76.30
39655;DHT22;25336;59.944;11.010;2024-02-26T06:17:10;5.00;76.20
39655;DHT22;25336;59.944;11.010;2024-02-26T06:19:36;5.00;76.10
39655;DHT22;25336;59.944;11.010;2024-02-26T06:22:01;5.00;75.90
39655;DHT22;25336;59.944;11.010;2024-02-26T06:24:27;5.00;75.80
39655;DHT22;25336;59.944;11.010;2024-02-26T06:26:53;5.00;75.80
39655;DHT22;25336;59.944;11.010;2024-02-26T06:29:19;5.00;75.70
39655;DHT22;25336;59.944;11.010;2024-02-26T06:31:44;5.00;75.50
39655;DHT22;25336;59.944;11.010;2024-02-26T06:34:10;4.90;75.50
39655;DHT22;25336;59.944;11.010;2024-02-26T06:36:37;4.90;75.40
39655;DHT22;25336;59.944;11.010;2024-02-26T06:39:02;4.90;75.50
39655;DHT22;25336;59.944;11.010;2024-02-26T06:41:28;4.90;75.50
39655;DHT22;25336;59.944;11.010;2024-02-26T06:43:55;4.90;75.60
39655;DHT22;25336;59.944;11.010;2024-02-26T06:46:22;4.90;75.50
39655;DHT22;25336;59.944;11.010;2024-02-26T06:48:48;4.90;75.30
39655;DHT22;25336;59.944;11.010;2024-02-26T06:51:14;4.90;75.20
39655;DHT22;25336;59.944;11.010;2024-02-26T06:53:40;4.80;75.20
39655;DHT22;25336;59.944;11.010;2024-02-26T06:56:06;4.80;75.10
39655;DHT22;25336;59.944;11.010;2024-02-26T06:58:31;4.80;75.20
39655;DHT22;25336;59.944;11.010;2024-02-26T07:00:57;4.80;75.30
39655;DHT22;25336;59.944;11.010;2024-02-26T07:03:23;4.70;75.20
39655;DHT22;25336;59.944;11.010;2024-02-26T07:05:49;4.70;75.30
39655;DHT22;25336;59.944;11.010;2024-02-26T07:08:15;4.80;75.30
39655;DHT22;25336;59.944;11.010;2024-02-26T07:10:42;4.70;75.30
39655;DHT22;25336;59.944;11.010;2024-02-26T07:13:10;4.80;75.30
39655;DHT22;25336;59.944;11.010;2024-02-26T07:15:36;4.80;75.40
39655;DHT22;25336;59.944;11.010;2024-02-26T07:18:01;4.80;75.30
39655;DHT22;25336;59.944;11.010;2024-02-26T07:20:30;4.80;75.30
39655;DHT22;25336;59.944;11.010;2024-02-26T07:22:56;4.80;75.30
39655;DHT22;25336;59.944;11.010;2024-02-26T07:25:22;4.80;75.30
39655;DHT22;25336;59.944;11.010;2024-02-26T07:27:48;4.80;75.30
39655;DHT22;25336;59.944;11.010;2024-02-26T07:30:14;4.80;75.20
39655;DHT22;25336;59.944;11.010;2024-02-26T07:32:40;4.80;75.00
39655;DHT22;25336;59.944;11.010;2024-02-26T07:35:06;4.80;74.90
39655;DHT22;25336;59.944;11.010;2024-02-26T07:37:31;4.70;74.80
39655;DHT22;25336;59.944;11.010;2024-02-26T07:39:57;4.70;74.80
39655;DHT22;25336;59.944;11.010;2024-02-26T07:42:23;4.70;74.70
39655;DHT22;25336;59.944;11.010;2024-02-26T07:44:49;4.70;74.70
39655;DHT22;25336;59.944;11.010;2024-02-26T07:47:14;4.70;74.70
39655;DHT22;25336;59.944;11.010;2024-02-26T07:49:41;4.70;74.80
39655;DHT22;25336;59.944;11.010;2024-02-26T07:52:06;4.70;74.70
39655;DHT22;25336;59.944;11.010;2024-02-26T07:54:32;4.60;74.60
39655;DHT22;25336;59.944;11.010;2024-02-26T07:56:58;4.60;74.70
39655;DHT22;25336;59.944;11.010;2024-02-26T07:59:23;4.60;74.70
39655;DHT22;25336;59.944;11.010;2024-02-26T08:01:52;4.60;74.60
39655;DHT22;25336;59.944;11.010;2024-02-26T08:04:18;4.60;74.60
39655;DHT22;25336;59.944;11.010;2024-02-26T08:06:44;4.60;74.70
39655;DHT22;25336;59.944;11.010;2024-02-26T08:09:10;4.60;74.70
39655;DHT22;25336;59.944;11.010;2024-02-26T08:11:35;4.60;74.70
39655;DHT22;25336;59.944;11.010;2024-02-26T08:14:01;4.60;74.60
39655;DHT22;25336;59.944;11.010;2024-02-26T08:16:27;4.60;74.70
39655;DHT22;25336;59.944;11.010;2024-02-26T08:18:53;4.60;74.80
39655;DHT22;25336;59.944;11.010;2024-02-26T08:21:18;4.60;74.70
39655;DHT22;25336;59.944;11.010;2024-02-26T08:23:44;4.60;74.70
39655;DHT22;25336;59.944;11.010;2024-02-26T08:26:10;4.60;74.80
39655;DHT22;25336;59.944;11.010;2024-02-26T08:28:39;4.60;75.80
39655;DHT22;25336;59.944;11.010;2024-02-26T08:31:05;4.60;75.00
39655;DHT22;25336;59.944;11.010;2024-02-26T08:33:31;4.60;75.10
39655;DHT22;25336;59.944;11.010;2024-02-26T08:35:57;4.70;75.00
39655;DHT22;25336;59.944;11.010;2024-02-26T08:38:23;4.70;74.90
39655;DHT22;25336;59.944;11.010;2024-02-26T08:40:49;4.70;74.80
39655;DHT22;25336;59.944;11.010;2024-02-26T08:43:15;4.70;74.80
39655;DHT22;25336;59.944;11.010;2024-02-26T08:45:40;4.70;74.70
39655;DHT22;25336;59.944;11.010;2024-02-26T08:48:07;4.80;74.80
39655;DHT22;25336;59.944;11.010;2024-02-26T08:50:33;4.80;74.80
39655;DHT22;25336;59.944;11.010;2024-02-26T08:52:58;4.90;74.90
39655;DHT22;25336;59.944;11.010;2024-02-26T08:55:26;4.90;74.80
39655;DHT22;25336;59.944;11.010;2024-02-26T08:57:52;4.90;74.90
39655;DHT22;25336;59.944;11.010;2024-02-26T09:00:18;5.00;74.90
39655;DHT22;25336;59.944;11.010;2024-02-26T09:02:49;3.80;74.10
39655;DHT22;25336;59.944;11.010;2024-02-26T09:05:15;5.10;74.70
39655;DHT22;25336;59.944;11.010;2024-02-26T09:07:41;5.10;74.60
39655;DHT22;25336;59.944;11.010;2024-02-26T09:10:07;5.10;74.40
39655;DHT22;25336;59.944;11.010;2024-02-26T09:12:37;5.20;74.40
39655;DHT22;25336;59.944;11.010;2024-02-26T09:15:03;5.20;74.40
39655;DHT22;25336;59.944;11.010;2024-02-26T09:17:29;5.30;74.50
39655;DHT22;25336;59.944;11.010;2024-02-26T09:19:55;5.30;74.40
39655;DHT22;25336;59.944;11.010;2024-02-26T09:22:20;5.40;74.40
39655;DHT22;25336;59.944;11.010;2024-02-26T09:24:46;5.40;74.10
39655;DHT22;25336;59.944;11.010;2024-02-26T09:27:12;5.50;74.00
39655;DHT22;25336;59.944;11.010;2024-02-26T09:29:37;5.50;74.00
39655;DHT22;25336;59.944;11.010;2024-02-26T09:32:03;5.60;73.50
39655;DHT22;25336;59.944;11.010;2024-02-26T09:34:29;5.60;73.20
39655;DHT22;25336;59.944;11.010;2024-02-26T09:36:55;5.60;73.30
39655;DHT22;25336;59.944;11.010;2024-02-26T09:39:20;5.60;73.20
39655;DHT22;25336;59.944;11.010;2024-02-26T09:41:48;5.60;73.90
39655;DHT22;25336;59.944;11.010;2024-02-26T09:44:20;5.60;72.90
39655;DHT22;25336;59.944;11.010;2024-02-26T09:46:47;5.60;72.60
39655;DHT22;25336;59.944;11.010;2024-02-26T09:49:17;5.60;72.70
39655;DHT22;25336;59.944;11.010;2024-02-26T09:51:44;5.60;72.70
39655;DHT22;25336;59.944;11.010;2024-02-26T09:54:10;5.60;72.80
39655;DHT22;25336;59.944;11.010;2024-02-26T09:56:39;5.60;72.90
39655;DHT22;25336;59.944;11.010;2024-02-26T09:59:15;4.60;72.10
39655;DHT22;25336;59.944;11.010;2024-02-26T10:01:44;5.70;72.80
39655;DHT22;25336;59.944;11.010;2024-02-26T10:04:10;5.80;72.90
39655;DHT22;25336;59.944;11.010;2024-02-26T10:06:37;5.80;72.80
39655;DHT22;25336;59.944;11.010;2024-02-26T10:09:03;5.90;72.90
39655;DHT22;25336;59.944;11.010;2024-02-26T10:11:32;5.90;72.20
39655;DHT22;25336;59.944;11.010;2024-02-26T10:13:58;6.00;72.10
39655;DHT22;25336;59.944;11.010;2024-02-26T10:16:25;6.00;71.70
39655;DHT22;25336;59.944;11.010;2024-02-26T10:18:52;6.00;71.20
39655;DHT22;25336;59.944;11.010;2024-02-26T10:21:19;6.00;71.30
39655;DHT22;25336;59.944;11.010;2024-02-26T10:23:46;6.10;71.30
39655;DHT22;25336;59.944;11.010;2024-02-26T10:26:13;6.10;71.20
39655;DHT22;25336;59.944;11.010;2024-02-26T10:28:41;6.10;70.60
39655;DHT22;25336;59.944;11.010;2024-02-26T10:31:10;6.20;71.20
39655;DHT22;25336;59.944;11.010;2024-02-26T10:33:37;6.20;71.20
39655;DHT22;25336;59.944;11.010;2024-02-26T10:36:04;6.20;70.80
39655;DHT22;25336;59.944;11.010;2024-02-26T10:38:36;6.20;70.40
39655;DHT22;25336;59.944;11.010;2024-02-26T10:41:06;6.30;70.40
39655;DHT22;25336;59.944;11.010;2024-02-26T10:43:32;6.30;69.60
39655;DHT22;25336;59.944;11.010;2024-02-26T10:45:58;6.30;70.20
39655;DHT22;25336;59.944;11.010;2024-02-26T10:48:23;6.30;69.50
39655;DHT22;25336;59.944;11.010;2024-02-26T10:50:49;6.30;69.40
39655;DHT22;25336;59.944;11.010;2024-02-26T10:53:28;6.30;69.60
39655;DHT22;25336;59.944;11.010;2024-02-26T10:55:59;6.30;69.40
39655;DHT22;25336;59.944;11.010;2024-02-26T10:58:26;6.30;70.00
39655;DHT22;25336;59.944;11.010;2024-02-26T11:00:53;6.40;70.10
39655;DHT22;25336;59.944;11.010;2024-02-26T11:03:19;6.40;70.10
39655;DHT22;25336;59.944;11.010;2024-02-26T11:05:49;6.40;69.50
39655;DHT22;25336;59.944;11.010;2024-02-26T11:08:19;6.50;68.80
39655;DHT22;25336;59.944;11.010;2024-02-26T11:10:52;6.50;68.70
39655;DHT22;25336;59.944;11.010;2024-02-26T11:13:19;6.50;68.50
39655;DHT22;25336;59.944;11.010;2024-02-26T11:15:48;6.50;68.50
39655;DHT22;25336;59.944;11.010;2024-02-26T11:18:16;6.50;68.60
39655;DHT22;25336;59.944;11.010;2024-02-26T11:20:45;6.50;68.80
39655;DHT22;25336;59.944;11.010;2024-02-26T11:23:11;6.40;68.70
39655;DHT22;25336;59.944;11.010;2024-02-26T11:25:37;6.40;68.40
39655;DHT22;25336;59.944;11.010;2024-02-26T11:28:10;6.40;68.50
39655;DHT22;25336;59.944;11.010;2024-02-26T11:30:41;6.50;68.60
39655;DHT22;25336;59.944;11.010;2024-02-26T11:33:08;6.50;68.90
39655;DHT22;25336;59.944;11.010;2024-02-26T11:35:36;6.50;69.30
39655;DHT22;25336;59.944;11.010;2024-02-26T11:38:02;6.60;69.00
39655;DHT22;25336;59.944;11.010;2024-02-26T11:40:28;6.60;68.60
39655;DHT22;25336;59.944;11.010;2024-02-26T11:42:54;6.60;67.60
39655;DHT22;25336;59.944;11.010;2024-02-26T11:48:04;6.60;66.40
39655;DHT22;25336;59.944;11.010;2024-02-26T11:50:42;6.50;66.40
39655;DHT22;25336;59.944;11.010;2024-02-26T11:53:30;6.50;66.50
39655;DHT22;25336;59.944;11.010;2024-02-26T11:58:45;6.40;67.00
39655;DHT22;25336;59.944;11.010;2024-02-26T12:01:39;6.40;67.60
39655;DHT22;25336;59.944;11.010;2024-02-26T12:04:27;6.40;66.70
39655;DHT22;25336;59.944;11.010;2024-02-26T12:06:55;6.40;67.20
39655;DHT22;25336;59.944;11.010;2024-02-26T12:09:51;6.40;67.10
39655;DHT22;25336;59.944;11.010;2024-02-26T12:12:18;6.40;66.60
39655;DHT22;25336;59.944;11.010;2024-02-26T12:14:55;6.40;67.50
39655;DHT22;25336;59.944;11.010;2024-02-26T12:17:25;6.40;67.50
39655;DHT22;25336;59.944;11.010;2024-02-26T12:19:52;6.40;67.50
39655;DHT22;25336;59.944;11.010;2024-02-26T12:22:19;6.30;67.20
39655;DHT22;25336;59.944;11.010;2024-02-26T12:24:45;6.30;66.60
39655;DHT22;25336;59.944;11.010;2024-02-26T12:27:11;6.30;66.80
39655;DHT22;25336;59.944;11.010;2024-02-26T12:29:36;6.30;66.80
39655;DHT22;25336;59.944;11.010;2024-02-26T12:32:05;6.30;67.10
39655;DHT22;25336;59.944;11.010;2024-02-26T12:34:31;6.30;67.00
39655;DHT22;25336;59.944;11.010;2024-02-26T12:36:58;6.20;67.00
39655;DHT22;25336;59.944;11.010;2024-02-26T12:39:24;6.30;67.20
39655;DHT22;25336;59.944;11.010;2024-02-26T12:41:50;6.20;66.70
39655;DHT22;25336;59.944;11.010;2024-02-26T12:44:24;6.20;66.60
39655;DHT22;25336;59.944;11.010;2024-02-26T12:46:50;6.20;66.60
39655;DHT22;25336;59.944;11.010;2024-02-26T12:49:17;6.20;66.80
39655;DHT22;25336;59.944;11.010;2024-02-26T12:51:44;6.20;66.70
39655;DHT22;25336;59.944;11.010;2024-02-26T12:54:11;6.10;66.60
39655;DHT22;25336;59.944;11.010;2024-02-26T12:56:39;6.10;66.40
39655;DHT22;25336;59.944;11.010;2024-02-26T12:59:05;6.10;66.30
39655;DHT22;25336;59.944;11.010;2024-02-26T13:01:31;6.00;66.70
39655;DHT22;25336;59.944;11.010;2024-02-26T13:03:57;6.00;66.10
39655;DHT22;25336;59.944;11.010;2024-02-26T13:06:24;6.00;67.40
39655;DHT22;25336;59.944;11.010;2024-02-26T13:08:49;5.90;66.70
39655;DHT22;25336;59.944;11.010;2024-02-26T13:11:15;5.90;66.70
39655;DHT22;25336;59.944;11.010;2024-02-26T13:13:41;5.90;67.00
39655;DHT22;25336;59.944;11.010;2024-02-26T13:16:10;5.80;66.90
39655;DHT22;25336;59.944;11.010;2024-02-26T13:18:36;5.90;67.00
39655;DHT22;25336;59.944;11.010;2024-02-26T13:21:12;5.90;67.20
39655;DHT22;25336;59.944;11.010;2024-02-26T13:23:41;5.80;66.70
39655;DHT22;25336;59.944;11.010;2024-02-26T13:26:08;5.90;67.10
39655;DHT22;25336;59.944;11.010;2024-02-26T13:28:37;5.90;67.20
39655;DHT22;25336;59.944;11.010;2024-02-26T13:31:03;5.80;66.90
39655;DHT22;25336;59.944;11.010;2024-02-26T13:33:31;5.80;67.00
39655;DHT22;25336;59.944;11.010;2024-02-26T13:35:58;5.80;66.50
39655;DHT22;25336;59.944;11.010;2024-02-26T13:38:24;5.80;66.60
39655;DHT22;25336;59.944;11.010;2024-02-26T13:40:51;5.80;66.60
39655;DHT22;25336;59.944;11.010;2024-02-26T13:43:17;5.80;66.70
39655;DHT22;25336;59.944;11.010;2024-02-26T13:45:43;5.80;66.90
39655;DHT22;25336;59.944;11.010;2024-02-26T13:48:10;5.80;66.70
39655;DHT22;25336;59.944;11.010;2024-02-26T13:50:37;5.80;66.80
39655;DHT22;25336;59.944;11.010;2024-02-26T13:53:03;5.80;66.60
39655;DHT22;25336;59.944;11.010;2024-02-26T13:55:30;5.70;66.60
39655;DHT22;25336;59.944;11.010;2024-02-26T13:57:58;5.70;66.60
39655;DHT22;25336;59.944;11.010;2024-02-26T14:00:24;5.70;66.50
39655;DHT22;25336;59.944;11.010;2024-02-26T14:02:50;5.70;66.50
39655;DHT22;25336;59.944;11.010;2024-02-26T14:05:16;5.70;66.40
39655;DHT22;25336;59.944;11.010;2024-02-26T14:07:42;5.70;66.70
39655;DHT22;25336;59.944;11.010;2024-02-26T14:10:12;5.70;66.60
39655;DHT22;25336;59.944;11.010;2024-02-26T14:12:38;5.60;66.50
39655;DHT22;25336;59.944;11.010;2024-02-26T14:15:08;5.60;66.60
39655;DHT22;25336;59.944;11.010;2024-02-26T14:17:35;5.60;66.60
39655;DHT22;25336;59.944;11.010;2024-02-26T14:20:01;5.60;66.50
39655;DHT22;25336;59.944;11.010;2024-02-26T14:22:26;5.60;66.40
39655;DHT22;25336;59.944;11.010;2024-02-26T14:24:53;5.60;66.70
39655;DHT22;25336;59.944;11.010;2024-02-26T14:27:18;5.60;66.60
39655;DHT22;25336;59.944;11.010;2024-02-26T14:29:48;5.50;66.80
39655;DHT22;25336;59.944;11.010;2024-02-26T14:32:13;5.60;66.50
39655;DHT22;25336;59.944;11.010;2024-02-26T14:34:39;5.60;66.70
39655;DHT22;25336;59.944;11.010;2024-02-26T14:37:05;5.60;67.60
39655;DHT22;25336;59.944;11.010;2024-02-26T14:39:32;5.60;66.60
39655;DHT22;25336;59.944;11.010;2024-02-26T14:41:58;5.60;66.70
39655;DHT22;25336;59.944;11.010;2024-02-26T14:44:25;5.60;66.90
39655;DHT22;25336;59.944;11.010;2024-02-26T14:46:50;5.60;66.70
39655;DHT22;25336;59.944;11.010;2024-02-26T14:49:16;5.60;66.70
39655;DHT22;25336;59.944;11.010;2024-02-26T14:51:49;5.60;65.90
39655;DHT22;25336;59.944;11.010;2024-02-26T14:54:15;5.60;65.70
39655;DHT22;25336;59.944;11.010;2024-02-26T14:56:40;5.60;66.80
39655;DHT22;25336;59.944;11.010;2024-02-26T14:59:06;5.60;66.10
39655;DHT22;25336;59.944;11.010;2024-02-26T15:01:32;5.50;66.20
39655;DHT22;25336;59.944;11.010;2024-02-26T15:03:59;5.50;65.70
39655;DHT22;25336;59.944;11.010;2024-02-26T15:06:25;5.50;66.00
39655;DHT22;25336;59.944;11.010;2024-02-26T15:08:52;5.50;66.10
39655;DHT22;25336;59.944;11.010;2024-02-26T15:11:17;5.40;66.10
39655;DHT22;25336;59.944;11.010;2024-02-26T15:13:43;5.40;66.00
39655;DHT22;25336;59.944;11.010;2024-02-26T15:16:09;5.40;66.20
39655;DHT22;25336;59.944;11.010;2024-02-26T15:18:36;5.90;66.60
39655;DHT22;25336;59.944;11.010;2024-02-26T15:21:02;5.30;65.90
39655;DHT22;25336;59.944;11.010;2024-02-26T15:23:28;5.30;65.90
39655;DHT22;25336;59.944;11.010;2024-02-26T15:25:55;5.20;66.30
39655;DHT22;25336;59.944;11.010;2024-02-26T15:28:20;5.20;66.50
39655;DHT22;25336;59.944;11.010;2024-02-26T15:30:46;5.20;66.50
39655;DHT22;25336;59.944;11.010;2024-02-26T15:33:13;5.10;66.40